Summersville, WV

3:58 PM EST on February 10, 2016 (GMT -0500)
Summersville | | Change Station
CLOSE
Current Station
Personal Weather Station
Location: Summersville, WV
Elevation: 1932 ft
Nearby Weather Stations
Active Advisory: Winter Weather Advisory Active Notice: Local Storm Report

Elev 1932 ft 38.30 °N, 80.84 °W | Updated 11 minutes ago

Snow
Snow
18.7 °F
Feels Like 12 °F
N
4.7
Wind Variable Wind from SW

Today
High -- | Low -- °F
--% Chance of Precip.
Yesterday
High -- | Low -- °F
Precip. -- in
Pressure 29.99 in
Visibility 3.0 miles
Clouds Few 2000 ft
Mostly Cloudy 2500 ft
Overcast 3400 ft
Windchill 12 °F
Dew Point 10 °F
Humidity 69%
Rainfall 0.00 in
Snow Depth Not available.
7:20 AM 5:55 PM
Waxing Crescent, 7% visible
METAR KBKW 102051Z AUTO 30010G17KT 3SM -SN FEW020 BKN025 OVC034 M09/M14 A2984 RMK AO2 SLP156 P0000 60000 T10941139 52005
Pressure 29.99 in
Visibility 3.0 miles
Clouds Few 2000 ft
Mostly Cloudy 2500 ft
Overcast 3400 ft
Windchill 12 °F
Dew Point 10 °F
Humidity 69%
Rainfall 0.00 in
Snow Depth Not available.
7:20 AM 5:55 PM
Waxing Crescent, 7% visible
METAR KBKW 102051Z AUTO 30010G17KT 3SM -SN FEW020 BKN025 OVC034 M09/M14 A2984 RMK AO2 SLP156 P0000 60000 T10941139 52005

10-Day Weather Forecast

Almanac

Astronomy

Feb. 10, 2016 Rise Set
Actual Time
Civil Twilight
Nautical Twilight
Astronomical Twilight
Moon
Length of Visible Light
Length of Day
Tomorrow will be .
, % of the Moon is Illuminated

Today's Extremes

State Highs State Lows

Community

WunderPhotos

Upload Photos

1,891,945 photos uploaded!

WunderBlog® & News

Nearby

Air Quality

  Air Quality AQ Index Pollutant
Not available.

Snow Depth

Station Depth Elevation

Earthquake Activity

City Distance Mag. Time & Date
Minimum magnitude displayed is 2.5.

Coastal Water Temperatures

Place Temperature

Stations

Nearby Weather Stations

Station Location Temp. Windchill Dew Point Humidity Wind Precip. Elev Updated Type
                   

Watches & Warnings

Winter Weather Advisory
Issued: 3:43 PM EST Feb. 10, 2016 – National Weather Service

... Winter Weather Advisory remains in effect until 6 am EST
Thursday...

* hazard types... snow showers of varying intensity.

* Total snow accumulations from Monday night through tonight...
6 to 12 inches.

* Temperatures... 9 to 20 above.

* Wind chill readings... as low as 7 below.

* Impacts... travel may be difficult at times. Visibilities will
be limited at times.

Precautionary/preparedness actions...

A Winter Weather Advisory for snow means that periods of snow
will cause primarily travel difficulties. Be prepared for snow
covered roads and limited visibilities... and use caution while
driving.

With the colder weather... have your vehicle equipped with
emergency supplies.